Bonnie View, Texas
Current Conditions -  °F | °C
As of 3:53 AM on Sunday 25 Jan 2015 (Local Time) from KRKP Reporting Station
Clear Clear  
Wind Chill: 50°   Ceiling: Unl
Heat Index: 50°   Visibility: 10mi
Dew Point: 38°   Wind: 7mph
Humidity: 63%   Direction: 220°SW
Pressure: 30.09"   Gusts: NA
Location:  28.1946°N, 97.3573°W
Report Text: KRKP 250953Z AUTO 22006KT 10SM CLR 10/03 A3009 RMK AO2 SLP191 T01000033 $
Loading
Personal Weather Stations






























Interactive Weather Map New forecast layout! Learn more

10-Day Weather Forecast

Advertisements
Track Severe Weather on mobile